sensor_id;sensor_type;location;lat;lon;timestamp;pressure;altitude;pressure_sealevel;temperature;humidity
17615;BME280;8926;49.720;6.576;2023-01-30T00:01:40;100572.03;;;1.54;80.23
17615;BME280;8926;49.720;6.576;2023-01-30T00:04:05;100546.31;;;1.51;81.14
17615;BME280;8926;49.720;6.576;2023-01-30T00:06:31;100549.72;;;1.53;81.11
17615;BME280;8926;49.720;6.576;2023-01-30T00:08:57;100540.31;;;1.50;81.15
17615;BME280;8926;49.720;6.576;2023-01-30T00:11:22;100528.28;;;1.51;81.32
17615;BME280;8926;49.720;6.576;2023-01-30T00:13:48;100509.41;;;1.49;81.45
17615;BME280;8926;49.720;6.576;2023-01-30T00:16:15;100494.84;;;1.45;81.55
17615;BME280;8926;49.720;6.576;2023-01-30T00:18:41;100477.69;;;1.45;82.14
17615;BME280;8926;49.720;6.576;2023-01-30T00:21:08;100481.13;;;1.43;81.79
17615;BME280;8926;49.720;6.576;2023-01-30T00:23:34;100493.19;;;1.38;82.08
17615;BME280;8926;49.720;6.576;2023-01-30T00:26:00;100482.00;;;1.42;82.83
17615;BME280;8926;49.720;6.576;2023-01-30T00:28:25;100503.41;;;1.47;82.07
17615;BME280;8926;49.720;6.576;2023-01-30T00:30:52;100501.66;;;1.52;81.78
17615;BME280;8926;49.720;6.576;2023-01-30T00:33:19;100476.78;;;1.54;81.40
17615;BME280;8926;49.720;6.576;2023-01-30T00:35:45;100483.63;;;1.53;81.79
17615;BME280;8926;49.720;6.576;2023-01-30T00:38:11;100510.22;;;1.55;81.30
17615;BME280;8926;49.720;6.576;2023-01-30T00:40:36;100483.63;;;1.53;81.84
17615;BME280;8926;49.720;6.576;2023-01-30T00:43:01;100503.38;;;1.56;82.04
17615;BME280;8926;49.720;6.576;2023-01-30T00:45:46;100493.09;;;1.53;81.61
17615;BME280;8926;49.720;6.576;2023-01-30T00:48:31;100503.38;;;1.53;81.84
17615;BME280;8926;49.720;6.576;2023-01-30T00:50:56;100499.97;;;1.51;82.30
17615;BME280;8926;49.720;6.576;2023-01-30T00:53:21;100481.94;;;1.52;82.49
17615;BME280;8926;49.720;6.576;2023-01-30T00:55:49;100484.50;;;1.51;82.51
17615;BME280;8926;49.720;6.576;2023-01-30T00:58:14;100479.38;;;1.51;82.50
17615;BME280;8926;49.720;6.576;2023-01-30T01:00:40;100467.34;;;1.53;82.67
17615;BME280;8926;49.720;6.576;2023-01-30T01:03:05;100473.38;;;1.49;83.17
17615;BME280;8926;49.720;6.576;2023-01-30T01:05:30;100470.81;;;1.49;83.28
17615;BME280;8926;49.720;6.576;2023-01-30T01:07:56;100459.63;;;1.53;82.72
17615;BME280;8926;49.720;6.576;2023-01-30T01:10:21;100445.00;;;1.55;83.13
17615;BME280;8926;49.720;6.576;2023-01-30T01:12:48;100432.09;;;1.56;83.42
17615;BME280;8926;49.720;6.576;2023-01-30T01:15:14;100439.81;;;1.58;83.20
17615;BME280;8926;49.720;6.576;2023-01-30T01:17:40;100424.34;;;1.58;83.05
17615;BME280;8926;49.720;6.576;2023-01-30T01:20:07;100428.63;;;1.59;83.47
17615;BME280;8926;49.720;6.576;2023-01-30T01:22:33;100428.69;;;1.56;83.28
17615;BME280;8926;49.720;6.576;2023-01-30T01:24:58;100421.84;;;1.55;83.83
17615;BME280;8926;49.720;6.576;2023-01-30T01:27:23;100409.84;;;1.54;83.78
17615;BME280;8926;49.720;6.576;2023-01-30T01:29:49;100411.56;;;1.52;84.25
17615;BME280;8926;49.720;6.576;2023-01-30T01:32:14;100404.69;;;1.52;84.23
17615;BME280;8926;49.720;6.576;2023-01-30T01:34:40;100405.53;;;1.56;83.64
17615;BME280;8926;49.720;6.576;2023-01-30T01:37:05;100413.19;;;1.57;83.41
17615;BME280;8926;49.720;6.576;2023-01-30T01:39:30;100415.75;;;1.59;83.67
17615;BME280;8926;49.720;6.576;2023-01-30T01:42:14;100408.09;;;1.56;83.46
17615;BME280;8926;49.720;6.576;2023-01-30T01:47:53;100398.59;;;1.58;83.83
17615;BME280;8926;49.720;6.576;2023-01-30T01:50:48;100405.47;;;1.59;84.06
17615;BME280;8926;49.720;6.576;2023-01-30T01:53:18;100393.44;;;1.61;83.87
17615;BME280;8926;49.720;6.576;2023-01-30T01:55:48;100393.44;;;1.59;84.77
17615;BME280;8926;49.720;6.576;2023-01-30T01:58:18;100387.44;;;1.60;85.01
17615;BME280;8926;49.720;6.576;2023-01-30T02:00:46;100397.69;;;1.65;85.07
17615;BME280;8926;49.720;6.576;2023-01-30T02:03:17;100372.00;;;1.57;85.80
17615;BME280;8926;49.720;6.576;2023-01-30T02:05:46;100374.63;;;1.56;85.91
17615;BME280;8926;49.720;6.576;2023-01-30T02:08:17;100375.50;;;1.55;86.29
17615;BME280;8926;49.720;6.576;2023-01-30T02:13:39;100379.81;;;1.53;86.50
17615;BME280;8926;49.720;6.576;2023-01-30T02:16:06;100399.59;;;1.46;87.41
17615;BME280;8926;49.720;6.576;2023-01-30T02:18:33;100379.81;;;1.53;87.35
17615;BME280;8926;49.720;6.576;2023-01-30T02:27:10;100370.38;;;1.52;87.12
17615;BME280;8926;49.720;6.576;2023-01-30T02:35:49;100359.22;;;1.53;87.54
17615;BME280;8926;49.720;6.576;2023-01-30T02:38:40;100349.78;;;1.50;87.80
17615;BME280;8926;49.720;6.576;2023-01-30T02:41:30;100350.63;;;1.54;87.44
17615;BME280;8926;49.720;6.576;2023-01-30T02:44:04;100355.75;;;1.54;87.38
17615;BME280;8926;49.720;6.576;2023-01-30T02:46:36;100343.72;;;1.56;87.63
17615;BME280;8926;49.720;6.576;2023-01-30T02:49:29;100354.03;;;1.54;87.87
17615;BME280;8926;49.720;6.576;2023-01-30T02:51:57;100347.19;;;1.52;88.14
17615;BME280;8926;49.720;6.576;2023-01-30T02:54:24;100348.88;;;1.56;87.61
17615;BME280;8926;49.720;6.576;2023-01-30T02:56:52;100359.13;;;1.59;87.24
17615;BME280;8926;49.720;6.576;2023-01-30T02:59:21;100366.81;;;1.60;87.95
17615;BME280;8926;49.720;6.576;2023-01-30T03:02:18;100355.66;;;1.63;87.74
17615;BME280;8926;49.720;6.576;2023-01-30T03:05:08;100362.47;;;1.67;87.59
17615;BME280;8926;49.720;6.576;2023-01-30T03:08:13;100364.16;;;1.71;87.22
17615;BME280;8926;49.720;6.576;2023-01-30T03:11:05;100348.69;;;1.71;86.97
17615;BME280;8926;49.720;6.576;2023-01-30T03:13:46;100358.19;;;1.67;87.47
17615;BME280;8926;49.720;6.576;2023-01-30T03:16:31;100365.00;;;1.72;87.51
17615;BME280;8926;49.720;6.576;2023-01-30T03:19:01;100362.41;;;1.73;87.54
17615;BME280;8926;49.720;6.576;2023-01-30T03:21:27;100364.16;;;1.71;88.13
17615;BME280;8926;49.720;6.576;2023-01-30T03:23:52;100365.88;;;1.69;88.77
17615;BME280;8926;49.720;6.576;2023-01-30T03:26:21;100360.75;;;1.67;88.70
17615;BME280;8926;49.720;6.576;2023-01-30T03:28:49;100351.31;;;1.68;88.85
17615;BME280;8926;49.720;6.576;2023-01-30T03:31:14;100342.72;;;1.67;89.44
17615;BME280;8926;49.720;6.576;2023-01-30T03:33:40;100332.44;;;1.66;89.39
17615;BME280;8926;49.720;6.576;2023-01-30T03:36:06;100348.78;;;1.62;90.16
17615;BME280;8926;49.720;6.576;2023-01-30T03:38:33;100357.41;;;1.58;90.31
17615;BME280;8926;49.720;6.576;2023-01-30T03:41:00;100347.09;;;1.61;90.68
17615;BME280;8926;49.720;6.576;2023-01-30T03:43:25;100359.06;;;1.65;91.22
17615;BME280;8926;49.720;6.576;2023-01-30T03:45:50;100355.63;;;1.66;91.16
17615;BME280;8926;49.720;6.576;2023-01-30T03:48:16;100349.56;;;1.70;91.18
17615;BME280;8926;49.720;6.576;2023-01-30T03:50:41;100337.50;;;1.74;90.36
17615;BME280;8926;49.720;6.576;2023-01-30T03:53:06;100336.66;;;1.75;90.56
17615;BME280;8926;49.720;6.576;2023-01-30T03:55:31;100332.34;;;1.75;90.60
17615;BME280;8926;49.720;6.576;2023-01-30T03:57:57;100333.22;;;1.74;90.16
17615;BME280;8926;49.720;6.576;2023-01-30T04:00:22;100327.19;;;1.75;90.17
17615;BME280;8926;49.720;6.576;2023-01-30T04:02:48;100332.34;;;1.75;90.45
17615;BME280;8926;49.720;6.576;2023-01-30T04:05:13;100328.91;;;1.76;90.33
17615;BME280;8926;49.720;6.576;2023-01-30T04:07:38;100313.41;;;1.79;90.28
17615;BME280;8926;49.720;6.576;2023-01-30T04:10:04;100308.31;;;1.75;90.22
17615;BME280;8926;49.720;6.576;2023-01-30T04:12:30;100301.44;;;1.75;90.38
17615;BME280;8926;49.720;6.576;2023-01-30T04:14:55;100292.00;;;1.74;90.64
17615;BME280;8926;49.720;6.576;2023-01-30T04:17:20;100292.88;;;1.75;90.79
17615;BME280;8926;49.720;6.576;2023-01-30T04:19:45;100290.31;;;1.72;91.39
17615;BME280;8926;49.720;6.576;2023-01-30T04:22:11;100277.41;;;1.75;91.61
17615;BME280;8926;49.720;6.576;2023-01-30T04:24:36;100294.53;;;1.79;91.06
17615;BME280;8926;49.720;6.576;2023-01-30T04:27:01;100295.31;;;1.82;91.31
17615;BME280;8926;49.720;6.576;2023-01-30T04:29:26;100297.09;;;1.80;91.64
17615;BME280;8926;49.720;6.576;2023-01-30T04:31:52;100283.34;;;1.81;91.41
17615;BME280;8926;49.720;6.576;2023-01-30T04:34:17;100286.72;;;1.83;91.41
17615;BME280;8926;49.720;6.576;2023-01-30T04:36:42;100281.53;;;1.86;90.99
17615;BME280;8926;49.720;6.576;2023-01-30T04:39:08;100282.38;;;1.88;90.70
17615;BME280;8926;49.720;6.576;2023-01-30T04:41:33;100273.75;;;1.91;91.18
17615;BME280;8926;49.720;6.576;2023-01-30T04:43:58;100271.19;;;1.89;91.11
17615;BME280;8926;49.720;6.576;2023-01-30T04:46:23;100266.06;;;1.89;91.05
17615;BME280;8926;49.720;6.576;2023-01-30T04:48:49;100269.50;;;1.88;91.46
17615;BME280;8926;49.720;6.576;2023-01-30T04:51:14;100267.75;;;1.90;91.63
17615;BME280;8926;49.720;6.576;2023-01-30T04:53:39;100267.72;;;1.93;91.37
17615;BME280;8926;49.720;6.576;2023-01-30T04:56:05;100276.28;;;1.95;91.27
17615;BME280;8926;49.720;6.576;2023-01-30T04:58:30;100258.16;;;2.03;91.10
17615;BME280;8926;49.720;6.576;2023-01-30T05:01:11;100264.16;;;2.03;91.08
17615;BME280;8926;49.720;6.576;2023-01-30T05:03:37;100259.00;;;2.03;91.04
17615;BME280;8926;49.720;6.576;2023-01-30T05:06:02;100248.66;;;2.07;90.91
17615;BME280;8926;49.720;6.576;2023-01-30T05:08:27;100240.94;;;2.07;91.00
17615;BME280;8926;49.720;6.576;2023-01-30T05:10:52;100253.75;;;2.10;90.79
17615;BME280;8926;49.720;6.576;2023-01-30T05:13:18;100246.88;;;2.09;90.89
17615;BME280;8926;49.720;6.576;2023-01-30T05:15:43;100242.56;;;2.09;90.92
17615;BME280;8926;49.720;6.576;2023-01-30T05:18:09;100236.50;;;2.15;90.36
17615;BME280;8926;49.720;6.576;2023-01-30T05:20:34;100234.75;;;2.17;90.57
17615;BME280;8926;49.720;6.576;2023-01-30T05:22:59;100239.03;;;2.18;90.70
17615;BME280;8926;49.720;6.576;2023-01-30T05:25:25;100238.16;;;2.19;90.58
17615;BME280;8926;49.720;6.576;2023-01-30T05:27:50;100224.47;;;2.14;90.68
17615;BME280;8926;49.720;6.576;2023-01-30T05:30:15;100205.59;;;2.12;90.58
17615;BME280;8926;49.720;6.576;2023-01-30T05:32:41;100207.31;;;2.13;90.37
17615;BME280;8926;49.720;6.576;2023-01-30T05:35:06;100213.34;;;2.12;90.60
17615;BME280;8926;49.720;6.576;2023-01-30T05:37:32;100204.75;;;2.13;90.57
17615;BME280;8926;49.720;6.576;2023-01-30T05:39:57;100196.25;;;2.08;91.31
17615;BME280;8926;49.720;6.576;2023-01-30T05:42:23;100205.66;;;2.09;91.06
17615;BME280;8926;49.720;6.576;2023-01-30T05:44:48;100188.44;;;2.11;90.69
17615;BME280;8926;49.720;6.576;2023-01-30T05:47:13;100197.91;;;2.09;91.54
17615;BME280;8926;49.720;6.576;2023-01-30T05:49:38;100192.66;;;2.16;90.69
17615;BME280;8926;49.720;6.576;2023-01-30T05:52:04;100192.69;;;2.15;90.56
17615;BME280;8926;49.720;6.576;2023-01-30T05:54:29;100198.66;;;2.17;90.77
17615;BME280;8926;49.720;6.576;2023-01-30T05:56:55;100179.75;;;2.18;91.00
17615;BME280;8926;49.720;6.576;2023-01-30T05:59:20;100184.00;;;2.20;90.49
17615;BME280;8926;49.720;6.576;2023-01-30T06:01:45;100183.22;;;2.17;91.08
17615;BME280;8926;49.720;6.576;2023-01-30T06:04:11;100181.47;;;2.19;91.09
17615;BME280;8926;49.720;6.576;2023-01-30T06:06:36;100181.50;;;2.16;91.59
17615;BME280;8926;49.720;6.576;2023-01-30T06:09:02;100176.31;;;2.19;91.54
17615;BME280;8926;49.720;6.576;2023-01-30T06:11:28;100180.59;;;2.18;91.77
17615;BME280;8926;49.720;6.576;2023-01-30T06:13:53;100193.56;;;2.14;92.66
17615;BME280;8926;49.720;6.576;2023-01-30T06:16:19;100193.56;;;2.14;92.72
17615;BME280;8926;49.720;6.576;2023-01-30T06:18:45;100203.00;;;2.13;93.01
17615;BME280;8926;49.720;6.576;2023-01-30T06:21:14;100210.66;;;2.19;93.01
17615;BME280;8926;49.720;6.576;2023-01-30T06:23:40;100212.34;;;2.22;92.70
17615;BME280;8926;49.720;6.576;2023-01-30T06:26:06;100208.94;;;2.20;93.14
17615;BME280;8926;49.720;6.576;2023-01-30T06:28:31;100202.03;;;2.22;93.41
17615;BME280;8926;49.720;6.576;2023-01-30T06:30:56;100218.41;;;2.18;93.40
17615;BME280;8926;49.720;6.576;2023-01-30T06:33:22;100219.28;;;2.17;93.38
17615;BME280;8926;49.720;6.576;2023-01-30T06:35:48;100215.78;;;2.21;93.23
17615;BME280;8926;49.720;6.576;2023-01-30T06:38:15;100214.09;;;2.20;93.32
17615;BME280;8926;49.720;6.576;2023-01-30T06:40:43;100219.25;;;2.20;93.54
17615;BME280;8926;49.720;6.576;2023-01-30T06:43:09;100222.69;;;2.19;93.09
17615;BME280;8926;49.720;6.576;2023-01-30T06:45:34;100236.44;;;2.19;93.34
17615;BME280;8926;49.720;6.576;2023-01-30T06:48:00;100223.50;;;2.22;93.64
17615;BME280;8926;49.720;6.576;2023-01-30T06:50:27;100220.94;;;2.21;93.23
17615;BME280;8926;49.720;6.576;2023-01-30T06:52:53;100219.19;;;2.23;93.19
17615;BME280;8926;49.720;6.576;2023-01-30T06:55:21;100222.59;;;2.25;93.20
17615;BME280;8926;49.720;6.576;2023-01-30T06:57:46;100220.84;;;2.27;93.13
17615;BME280;8926;49.720;6.576;2023-01-30T07:00:17;100218.22;;;2.31;93.44
17615;BME280;8926;49.720;6.576;2023-01-30T07:02:43;100210.47;;;2.33;93.26
17615;BME280;8926;49.720;6.576;2023-01-30T07:05:09;100224.09;;;2.38;92.94
17615;BME280;8926;49.720;6.576;2023-01-30T07:07:36;100213.78;;;2.38;93.41
17615;BME280;8926;49.720;6.576;2023-01-30T07:10:04;100213.75;;;2.41;93.41
17615;BME280;8926;49.720;6.576;2023-01-30T07:12:30;100213.78;;;2.38;93.64
17615;BME280;8926;49.720;6.576;2023-01-30T07:14:55;100220.69;;;2.36;93.68
17615;BME280;8926;49.720;6.576;2023-01-30T07:17:21;100240.44;;;2.37;94.58
17615;BME280;8926;49.720;6.576;2023-01-30T07:19:46;100249.00;;;2.39;94.27
17615;BME280;8926;49.720;6.576;2023-01-30T07:22:12;100242.94;;;2.43;93.50
17615;BME280;8926;49.720;6.576;2023-01-30T07:24:38;100244.63;;;2.44;94.31
17615;BME280;8926;49.720;6.576;2023-01-30T07:27:10;100240.38;;;2.42;94.13
17615;BME280;8926;49.720;6.576;2023-01-30T07:29:38;100218.91;;;2.41;94.67
17615;BME280;8926;49.720;6.576;2023-01-30T07:32:05;100232.56;;;2.46;93.94
17615;BME280;8926;49.720;6.576;2023-01-30T07:34:30;100239.44;;;2.47;94.24
17615;BME280;8926;49.720;6.576;2023-01-30T07:36:56;100229.06;;;2.50;94.28
17615;BME280;8926;49.720;6.576;2023-01-30T07:39:21;100244.59;;;2.47;94.20
17615;BME280;8926;49.720;6.576;2023-01-30T07:41:46;100254.88;;;2.49;94.79
17615;BME280;8926;49.720;6.576;2023-01-30T07:44:12;100254.91;;;2.47;94.75
17615;BME280;8926;49.720;6.576;2023-01-30T07:46:38;100247.97;;;2.52;95.04
17615;BME280;8926;49.720;6.576;2023-01-30T07:49:04;100243.63;;;2.54;94.32
17615;BME280;8926;49.720;6.576;2023-01-30T07:51:30;100262.47;;;2.58;94.83
17615;BME280;8926;49.720;6.576;2023-01-30T07:53:55;100260.75;;;2.58;95.23
17615;BME280;8926;49.720;6.576;2023-01-30T07:56:20;100242.63;;;2.61;95.08
17615;BME280;8926;49.720;6.576;2023-01-30T07:58:46;100230.56;;;2.63;94.30
17615;BME280;8926;49.720;6.576;2023-01-30T08:01:12;100225.44;;;2.60;94.94
17615;BME280;8926;49.720;6.576;2023-01-30T08:03:37;100226.38;;;2.58;94.84
17615;BME280;8926;49.720;6.576;2023-01-30T08:06:02;100235.78;;;2.60;94.91
17615;BME280;8926;49.720;6.576;2023-01-30T08:08:28;100232.28;;;2.63;94.87
17615;BME280;8926;49.720;6.576;2023-01-30T08:10:53;100232.25;;;2.66;94.33
17615;BME280;8926;49.720;6.576;2023-01-30T08:13:18;100231.31;;;2.70;94.84
17615;BME280;8926;49.720;6.576;2023-01-30T08:15:43;100221.84;;;2.70;94.67
17615;BME280;8926;49.720;6.576;2023-01-30T08:18:09;100218.41;;;2.70;95.19
17615;BME280;8926;49.720;6.576;2023-01-30T08:20:35;100217.50;;;2.74;94.25
17615;BME280;8926;49.720;6.576;2023-01-30T08:23:00;100218.34;;;2.75;94.92
17615;BME280;8926;49.720;6.576;2023-01-30T08:25:27;100225.16;;;2.79;94.95
17615;BME280;8926;49.720;6.576;2023-01-30T08:27:52;100230.31;;;2.79;94.33
17615;BME280;8926;49.720;6.576;2023-01-30T08:30:18;100228.56;;;2.81;94.47
17615;BME280;8926;49.720;6.576;2023-01-30T08:32:44;100225.13;;;2.82;94.91
17615;BME280;8926;49.720;6.576;2023-01-30T08:35:09;100230.28;;;2.82;94.77
17615;BME280;8926;49.720;6.576;2023-01-30T08:37:35;100238.75;;;2.87;94.93
17615;BME280;8926;49.720;6.576;2023-01-30T08:40:01;100249.03;;;2.90;94.10
17615;BME280;8926;49.720;6.576;2023-01-30T08:42:26;100247.31;;;2.89;94.51
17615;BME280;8926;49.720;6.576;2023-01-30T08:44:51;100248.06;;;2.95;94.82
17615;BME280;8926;49.720;6.576;2023-01-30T08:47:17;100246.31;;;2.97;95.01
17615;BME280;8926;49.720;6.576;2023-01-30T08:49:42;100246.28;;;3.00;94.22
17615;BME280;8926;49.720;6.576;2023-01-30T08:52:07;100247.13;;;3.01;94.33
17615;BME280;8926;49.720;6.576;2023-01-30T08:54:32;100239.34;;;3.02;94.84
17615;BME280;8926;49.720;6.576;2023-01-30T08:56:58;100242.75;;;3.04;94.68
17615;BME280;8926;49.720;6.576;2023-01-30T08:59:23;100253.06;;;3.06;95.04
17615;BME280;8926;49.720;6.576;2023-01-30T09:01:48;100252.97;;;3.11;94.59
17615;BME280;8926;49.720;6.576;2023-01-30T09:04:14;100251.19;;;3.13;94.44
17615;BME280;8926;49.720;6.576;2023-01-30T09:06:39;100243.41;;;3.14;94.92
17615;BME280;8926;49.720;6.576;2023-01-30T09:09:04;100233.97;;;3.13;94.01
17615;BME280;8926;49.720;6.576;2023-01-30T09:11:29;100229.59;;;3.18;94.40
17615;BME280;8926;49.720;6.576;2023-01-30T09:13:55;100226.13;;;3.19;94.43
17615;BME280;8926;49.720;6.576;2023-01-30T09:16:20;100214.88;;;3.22;94.73
17615;BME280;8926;49.720;6.576;2023-01-30T09:18:45;100213.13;;;3.24;94.85
17615;BME280;8926;49.720;6.576;2023-01-30T09:21:11;100217.38;;;3.26;94.11
17615;BME280;8926;49.720;6.576;2023-01-30T09:23:37;100218.22;;;3.28;93.82
17615;BME280;8926;49.720;6.576;2023-01-30T09:26:03;100234.59;;;3.27;94.54
17615;BME280;8926;49.720;6.576;2023-01-30T09:28:29;100237.94;;;3.32;94.60
17615;BME280;8926;49.720;6.576;2023-01-30T09:30:59;100232.72;;;3.35;94.16
17615;BME280;8926;49.720;6.576;2023-01-30T09:33:27;100231.88;;;3.35;94.23
17615;BME280;8926;49.720;6.576;2023-01-30T09:35:53;100230.94;;;3.37;95.02
17615;BME280;8926;49.720;6.576;2023-01-30T09:38:18;100239.53;;;3.38;94.04
17615;BME280;8926;49.720;6.576;2023-01-30T09:49:33;100225.59;;;3.47;94.69
17615;BME280;8926;49.720;6.576;2023-01-30T09:54:59;100238.44;;;3.50;94.55
17615;BME280;8926;49.720;6.576;2023-01-30T09:57:26;100237.59;;;3.49;95.12
17615;BME280;8926;49.720;6.576;2023-01-30T10:05:42;100239.16;;;3.58;94.88
17615;BME280;8926;49.720;6.576;2023-01-30T10:16:53;100257.72;;;3.75;94.64
17615;BME280;8926;49.720;6.576;2023-01-30T10:22:40;100231.69;;;3.84;95.07
17615;BME280;8926;49.720;6.576;2023-01-30T10:30:43;100229.78;;;3.92;95.42
17615;BME280;8926;49.720;6.576;2023-01-30T10:33:29;100240.06;;;3.95;95.08
17615;BME280;8926;49.720;6.576;2023-01-30T10:36:06;100237.28;;;4.04;94.16
17615;BME280;8926;49.720;6.576;2023-01-30T10:38:40;100219.19;;;4.04;94.89
17615;BME280;8926;49.720;6.576;2023-01-30T10:41:22;100239.72;;;4.11;94.33
17615;BME280;8926;49.720;6.576;2023-01-30T10:43:57;100235.38;;;4.13;94.23
17615;BME280;8926;49.720;6.576;2023-01-30T10:58:36;100234.00;;;4.35;93.22
17615;BME280;8926;49.720;6.576;2023-01-30T11:01:00;100230.59;;;4.33;94.10
17615;BME280;8926;49.720;6.576;2023-01-30T11:03:29;100228.81;;;4.35;93.93
17615;BME280;8926;49.720;6.576;2023-01-30T11:06:02;100217.53;;;4.39;93.26
17615;BME280;8926;49.720;6.576;2023-01-30T11:08:31;100220.78;;;4.46;93.63
17615;BME280;8926;49.720;6.576;2023-01-30T11:10:57;100216.28;;;4.54;92.53
17615;BME280;8926;49.720;6.576;2023-01-30T11:13:33;100214.53;;;4.54;93.20
17615;BME280;8926;49.720;6.576;2023-01-30T11:16:02;100208.31;;;4.63;93.57
17615;BME280;8926;49.720;6.576;2023-01-30T11:18:28;100202.94;;;4.69;92.88
17615;BME280;8926;49.720;6.576;2023-01-30T11:21:08;100192.53;;;4.72;93.37
17615;BME280;8926;49.720;6.576;2023-01-30T11:23:42;100207.13;;;4.74;92.34
17615;BME280;8926;49.720;6.576;2023-01-30T11:26:32;100204.50;;;4.76;92.21
17615;BME280;8926;49.720;6.576;2023-01-30T11:28:58;100195.00;;;4.76;92.64
17615;BME280;8926;49.720;6.576;2023-01-30T11:31:26;100210.44;;;4.80;92.76
17615;BME280;8926;49.720;6.576;2023-01-30T11:34:01;100208.75;;;4.78;93.00
17615;BME280;8926;49.720;6.576;2023-01-30T11:36:31;100210.44;;;4.80;92.96
17615;BME280;8926;49.720;6.576;2023-01-30T11:39:00;100212.16;;;4.81;93.12
17615;BME280;8926;49.720;6.576;2023-01-30T11:41:27;100198.09;;;4.91;92.93
17615;BME280;8926;49.720;6.576;2023-01-30T11:44:00;100193.50;;;5.00;91.76
17615;BME280;8926;49.720;6.576;2023-01-30T11:46:29;100183.91;;;5.04;92.50
17615;BME280;8926;49.720;6.576;2023-01-30T11:49:00;100188.22;;;5.05;92.17
17615;BME280;8926;49.720;6.576;2023-01-30T11:51:28;100183.84;;;5.07;91.51
17615;BME280;8926;49.720;6.576;2023-01-30T11:53:56;100189.06;;;5.05;92.04
17615;BME280;8926;49.720;6.576;2023-01-30T11:56:39;100171.78;;;5.06;92.50
17615;BME280;8926;49.720;6.576;2023-01-30T11:59:15;100179.47;;;5.09;92.78
17615;BME280;8926;49.720;6.576;2023-01-30T12:01:42;100170.66;;;5.16;92.29
17615;BME280;8926;49.720;6.576;2023-01-30T12:04:10;100171.09;;;5.30;92.02
17615;BME280;8926;49.720;6.576;2023-01-30T12:06:38;100165.56;;;5.42;90.80
17615;BME280;8926;49.720;6.576;2023-01-30T12:09:05;100163.50;;;5.54;90.71
17615;BME280;8926;49.720;6.576;2023-01-30T12:11:40;100154.41;;;5.70;90.30
17615;BME280;8926;49.720;6.576;2023-01-30T12:14:18;100159.28;;;5.79;89.89
17615;BME280;8926;49.720;6.576;2023-01-30T12:19:30;100155.16;;;6.01;89.36
17615;BME280;8926;49.720;6.576;2023-01-30T12:22:04;100153.84;;;6.16;89.24
17615;BME280;8926;49.720;6.576;2023-01-30T12:24:38;100150.78;;;6.30;88.37
17615;BME280;8926;49.720;6.576;2023-01-30T12:27:13;100159.16;;;6.38;88.47
17615;BME280;8926;49.720;6.576;2023-01-30T12:30:04;100153.19;;;6.36;87.49
17615;BME280;8926;49.720;6.576;2023-01-30T12:32:33;100158.59;;;6.28;87.49
17615;BME280;8926;49.720;6.576;2023-01-30T12:35:00;100147.47;;;6.25;87.73
17615;BME280;8926;49.720;6.576;2023-01-30T12:45:31;100148.47;;;6.22;87.84
17615;BME280;8926;49.720;6.576;2023-01-30T12:53:43;100121.16;;;6.37;87.08
17615;BME280;8926;49.720;6.576;2023-01-30T12:59:34;100131.75;;;6.80;86.56
17615;BME280;8926;49.720;6.576;2023-01-30T13:05:05;100133.88;;;6.94;85.92
17615;BME280;8926;49.720;6.576;2023-01-30T13:10:38;100141.00;;;6.88;86.04
17615;BME280;8926;49.720;6.576;2023-01-30T13:18:14;100144.06;;;6.75;86.23
17615;BME280;8926;49.720;6.576;2023-01-30T13:20:48;100138.97;;;6.72;86.27
17615;BME280;8926;49.720;6.576;2023-01-30T13:28:39;100149.50;;;6.68;86.72
17615;BME280;8926;49.720;6.576;2023-01-30T13:31:09;100148.66;;;6.67;86.54
17615;BME280;8926;49.720;6.576;2023-01-30T13:33:39;100146.00;;;6.69;86.32
17615;BME280;8926;49.720;6.576;2023-01-30T13:36:17;100152.94;;;6.68;86.60
17615;BME280;8926;49.720;6.576;2023-01-30T13:38:55;100153.75;;;6.70;86.58
17615;BME280;8926;49.720;6.576;2023-01-30T13:41:23;100147.56;;;6.74;86.41
17615;BME280;8926;49.720;6.576;2023-01-30T13:43:51;100156.81;;;6.81;86.93
17615;BME280;8926;49.720;6.576;2023-01-30T13:46:21;100153.91;;;6.91;86.85
17615;BME280;8926;49.720;6.576;2023-01-30T13:54:29;100166.63;;;6.98;86.17
17615;BME280;8926;49.720;6.576;2023-01-30T13:57:13;100163.06;;;7.01;86.27
17615;BME280;8926;49.720;6.576;2023-01-30T14:00:15;100172.53;;;7.02;86.51
17615;BME280;8926;49.720;6.576;2023-01-30T14:03:19;100177.72;;;7.02;86.59
17615;BME280;8926;49.720;6.576;2023-01-30T14:08:20;100182.81;;;7.05;86.73
17615;BME280;8926;49.720;6.576;2023-01-30T14:10:46;100180.16;;;7.06;87.07
17615;BME280;8926;49.720;6.576;2023-01-30T14:13:14;100180.97;;;7.08;87.23
17615;BME280;8926;49.720;6.576;2023-01-30T14:15:55;100183.56;;;7.08;87.79
17615;BME280;8926;49.720;6.576;2023-01-30T14:18:22;100172.22;;;7.11;87.28
17615;BME280;8926;49.720;6.576;2023-01-30T14:20:50;100182.59;;;7.11;87.47
17615;BME280;8926;49.720;6.576;2023-01-30T14:23:31;100192.88;;;7.14;88.00
17615;BME280;8926;49.720;6.576;2023-01-30T14:25:57;100196.28;;;7.16;87.44
17615;BME280;8926;49.720;6.576;2023-01-30T14:30:53;100204.88;;;7.18;86.66
17615;BME280;8926;49.720;6.576;2023-01-30T14:38:19;100209.88;;;7.24;86.24
17615;BME280;8926;49.720;6.576;2023-01-30T14:45:59;100226.25;;;7.26;86.29
17615;BME280;8926;49.720;6.576;2023-01-30T14:51:21;100227.25;;;7.22;85.70
17615;BME280;8926;49.720;6.576;2023-01-30T14:56:42;100239.34;;;7.23;86.59
17615;BME280;8926;49.720;6.576;2023-01-30T15:01:53;100242.75;;;7.25;86.62
17615;BME280;8926;49.720;6.576;2023-01-30T15:04:18;100251.50;;;7.23;83.99
17615;BME280;8926;49.720;6.576;2023-01-30T15:06:46;100254.84;;;7.26;83.80
17615;BME280;8926;49.720;6.576;2023-01-30T15:09:21;100261.44;;;7.35;83.71
17615;BME280;8926;49.720;6.576;2023-01-30T15:12:01;100264.88;;;7.35;82.65
17615;BME280;8926;49.720;6.576;2023-01-30T15:14:52;100277.19;;;7.30;82.32
17615;BME280;8926;49.720;6.576;2023-01-30T15:17:44;100286.00;;;7.26;82.35
17615;BME280;8926;49.720;6.576;2023-01-30T15:31:31;100299.09;;;7.23;81.97
17615;BME280;8926;49.720;6.576;2023-01-30T15:33:57;100301.72;;;7.23;80.25
17615;BME280;8926;49.720;6.576;2023-01-30T15:36:26;100297.41;;;7.22;80.69
17615;BME280;8926;49.720;6.576;2023-01-30T15:39:00;100302.81;;;7.16;80.31
17615;BME280;8926;49.720;6.576;2023-01-30T15:41:28;100302.97;;;7.11;79.94